createdAt,value
2023-05-01T00:01:44.286Z,1.42
2023-05-01T00:04:11.789Z,1.55
2023-05-01T00:06:39.213Z,2.60
2023-05-01T00:09:07.330Z,1.38
2023-05-01T00:11:37.469Z,0.88
2023-05-01T00:14:04.845Z,0.77
2023-05-01T00:16:31.913Z,0.98
2023-05-01T00:19:02.171Z,1.13
2023-05-01T00:21:29.271Z,2.10
2023-05-01T00:23:56.306Z,2.13
2023-05-01T00:26:26.419Z,4.78
2023-05-01T00:28:54.378Z,0.93
2023-05-01T00:31:21.550Z,1.00
2023-05-01T00:33:48.710Z,1.45
2023-05-01T00:36:16.235Z,1.10
2023-05-01T00:38:43.312Z,1.70
2023-05-01T00:41:10.676Z,0.90
2023-05-01T00:43:38.026Z,1.00
2023-05-01T00:46:05.315Z,0.93
2023-05-01T00:48:32.742Z,1.20
2023-05-01T00:51:01.952Z,1.70
2023-05-01T00:53:33.894Z,1.95
2023-05-01T00:56:01.306Z,2.70
2023-05-01T00:58:29.563Z,1.30
2023-05-01T01:00:59.828Z,1.33
2023-05-01T01:03:30.144Z,2.08
2023-05-01T01:06:10.757Z,1.10
2023-05-01T01:08:49.768Z,1.70
2023-05-01T01:12:01.298Z,2.13
2023-05-01T01:14:37.566Z,2.42
2023-05-01T01:17:14.078Z,1.02
2023-05-01T01:19:59.402Z,0.98
2023-05-01T01:22:28.963Z,0.93
2023-05-01T01:25:11.585Z,1.60
2023-05-01T01:27:58.188Z,2.33
2023-05-01T01:30:43.709Z,1.00
2023-05-01T01:33:43.265Z,3.55
2023-05-01T01:36:20.452Z,0.85
2023-05-01T01:39:07.814Z,1.05
2023-05-01T01:41:37.142Z,0.90
2023-05-01T01:44:24.659Z,2.33
2023-05-01T01:46:54.701Z,1.00
2023-05-01T01:49:27.658Z,0.75
2023-05-01T01:51:59.110Z,1.10
2023-05-01T01:54:51.451Z,1.52
2023-05-01T01:57:21.532Z,0.90
2023-05-01T01:59:52.569Z,1.63
2023-05-01T02:02:23.521Z,1.02
2023-05-01T02:04:52.241Z,0.98
2023-05-01T02:07:20.776Z,1.35
2023-05-01T02:09:49.728Z,0.63
2023-05-01T02:12:18.876Z,2.13
2023-05-01T02:14:48.407Z,0.70
2023-05-01T02:17:16.927Z,1.83
2023-05-01T02:19:46.973Z,0.60
2023-05-01T02:22:15.885Z,0.63
2023-05-01T02:24:45.805Z,1.10
2023-05-01T02:27:19.596Z,1.25
2023-05-01T02:29:46.916Z,1.48
2023-05-01T02:32:14.608Z,2.95
2023-05-01T02:34:42.236Z,1.38
2023-05-01T02:37:11.590Z,1.13
2023-05-01T02:39:42.522Z,0.73
2023-05-01T02:42:12.306Z,2.92
2023-05-01T02:44:43.467Z,1.42
2023-05-01T02:47:14.881Z,1.38
2023-05-01T02:49:44.005Z,1.10
2023-05-01T02:52:12.794Z,4.40
2023-05-01T02:54:40.247Z,2.22
2023-05-01T02:57:07.411Z,2.28
2023-05-01T02:59:35.417Z,0.80
2023-05-01T03:02:03.767Z,1.35
2023-05-01T03:04:33.726Z,2.15
2023-05-01T03:07:00.951Z,2.80
2023-05-01T03:09:27.989Z,1.65
2023-05-01T03:11:55.084Z,2.25
2023-05-01T03:14:22.516Z,2.10
2023-05-01T03:16:50.086Z,1.25
2023-05-01T03:19:17.705Z,2.08
2023-05-01T03:21:44.944Z,0.90
2023-05-01T03:24:12.366Z,0.63
2023-05-01T03:26:39.513Z,1.17
2023-05-01T03:29:07.829Z,1.27
2023-05-01T03:31:35.725Z,3.65
2023-05-01T03:34:02.964Z,1.70
2023-05-01T03:36:33.142Z,1.35
2023-05-01T03:39:01.049Z,1.75
2023-05-01T03:41:46.419Z,1.23
2023-05-01T03:44:32.782Z,1.95
2023-05-01T03:47:00.584Z,2.80
2023-05-01T03:49:31.618Z,1.88
2023-05-01T03:52:08.877Z,1.08
2023-05-01T03:54:37.210Z,1.02
2023-05-01T03:57:30.229Z,1.00
2023-05-01T04:00:00.187Z,1.40
2023-05-01T04:02:28.407Z,1.63
2023-05-01T04:04:55.598Z,0.85
2023-05-01T04:07:22.882Z,0.43
2023-05-01T04:09:51.035Z,1.55
2023-05-01T04:12:18.257Z,1.67
2023-05-01T04:14:45.725Z,1.85
2023-05-01T04:17:13.187Z,1.90
2023-05-01T04:19:43.272Z,1.45
2023-05-01T04:22:10.560Z,1.98
2023-05-01T04:24:37.749Z,2.42
2023-05-01T04:27:07.465Z,2.10
2023-05-01T04:29:34.607Z,2.28
2023-05-01T04:32:02.253Z,1.13
2023-05-01T04:34:32.592Z,1.35
2023-05-01T04:37:00.066Z,1.08
2023-05-01T04:39:27.418Z,0.85
2023-05-01T04:41:57.127Z,0.75
2023-05-01T04:44:25.234Z,1.52
2023-05-01T04:46:52.931Z,1.90
2023-05-01T04:49:21.436Z,0.70
2023-05-01T04:51:48.577Z,0.98
2023-05-01T04:54:20.713Z,1.25
2023-05-01T04:56:47.789Z,2.47
2023-05-01T04:59:20.473Z,2.67
2023-05-01T05:01:47.862Z,1.10
2023-05-01T05:04:15.194Z,2.28
2023-05-01T05:06:42.665Z,0.80
2023-05-01T05:09:20.464Z,0.90
2023-05-01T05:11:47.781Z,0.95
2023-05-01T05:14:21.808Z,2.05
2023-05-01T05:16:49.187Z,2.17
2023-05-01T05:19:17.025Z,1.08
2023-05-01T05:21:44.280Z,2.20
2023-05-01T05:24:12.707Z,1.85
2023-05-01T05:26:43.075Z,1.92
2023-05-01T05:29:11.456Z,4.72
2023-05-01T05:31:38.819Z,1.60
2023-05-01T05:34:06.198Z,1.00
2023-05-01T05:36:33.967Z,1.65
2023-05-01T05:39:01.088Z,2.63
2023-05-01T05:41:31.424Z,1.75
2023-05-01T05:46:31.812Z,1.15
2023-05-01T05:49:02.061Z,3.47
2023-05-01T05:51:31.878Z,1.08
2023-05-01T05:54:00.256Z,1.10
2023-05-01T05:56:27.994Z,2.00
2023-05-01T05:58:55.562Z,1.00
2023-05-01T06:01:22.857Z,1.33
2023-05-01T06:03:50.021Z,4.05
2023-05-01T06:06:17.349Z,1.10
2023-05-01T06:08:47.120Z,1.27
2023-05-01T06:11:15.207Z,1.52
2023-05-01T06:13:42.450Z,1.50
2023-05-01T06:16:10.201Z,1.38
2023-05-01T06:18:37.697Z,1.75
2023-05-01T06:21:05.648Z,2.97
2023-05-01T06:23:37.195Z,1.60
2023-05-01T06:26:24.673Z,3.13
2023-05-01T06:28:51.819Z,2.40
2023-05-01T06:31:18.982Z,1.08
2023-05-01T06:33:50.997Z,1.10
2023-05-01T06:36:36.649Z,1.15
2023-05-01T06:39:04.007Z,0.70
2023-05-01T06:41:32.904Z,1.73
2023-05-01T06:44:00.171Z,1.88
2023-05-01T06:46:28.424Z,1.63
2023-05-01T06:48:55.673Z,1.70
2023-05-01T06:51:22.810Z,2.92
2023-05-01T06:53:49.853Z,2.58
2023-05-01T06:56:16.935Z,1.95
2023-05-01T06:58:44.008Z,1.77
2023-05-01T07:01:11.390Z,4.00
2023-05-01T07:03:38.911Z,2.53
2023-05-01T07:06:06.536Z,2.53
2023-05-01T07:08:33.689Z,2.20
2023-05-01T07:11:00.838Z,2.92
2023-05-01T07:13:28.030Z,1.50
2023-05-01T07:15:55.429Z,1.70
2023-05-01T07:18:22.743Z,1.60
2023-05-01T07:20:50.556Z,0.93
2023-05-01T07:23:17.776Z,2.78
2023-05-01T07:25:46.101Z,1.73
2023-05-01T07:28:13.468Z,3.90
2023-05-01T07:30:41.234Z,1.63
2023-05-01T07:33:08.385Z,1.42
2023-05-01T07:35:35.611Z,2.33
2023-05-01T07:38:02.767Z,2.03
2023-05-01T07:40:29.896Z,1.45
2023-05-01T07:42:57.002Z,3.15
2023-05-01T07:45:24.212Z,3.33
2023-05-01T07:47:52.473Z,2.33
2023-05-01T07:50:19.730Z,2.47
2023-05-01T07:52:46.893Z,2.38
2023-05-01T07:55:14.181Z,2.35
2023-05-01T07:57:41.446Z,2.28
2023-05-01T08:00:09.289Z,3.85
2023-05-01T08:02:42.501Z,2.50
2023-05-01T08:05:10.226Z,2.45
2023-05-01T08:07:37.465Z,4.72
2023-05-01T08:10:06.976Z,1.90
2023-05-01T08:12:34.038Z,2.80
2023-05-01T08:15:07.437Z,2.60
2023-05-01T08:17:36.226Z,3.60
2023-05-01T08:20:10.195Z,3.15
2023-05-01T08:22:37.167Z,2.70
2023-05-01T08:25:05.944Z,3.63
2023-05-01T08:27:33.842Z,3.10
2023-05-01T08:30:01.332Z,3.13
2023-05-01T08:32:32.394Z,2.80
2023-05-01T08:35:02.125Z,4.50
2023-05-01T08:37:29.758Z,3.60
2023-05-01T08:39:57.297Z,3.17
2023-05-01T08:42:27.743Z,2.33
2023-05-01T08:44:59.434Z,2.40
2023-05-01T08:47:29.266Z,2.40
2023-05-01T08:50:10.062Z,3.03
2023-05-01T08:52:43.285Z,2.63
2023-05-01T08:55:17.944Z,3.55
2023-05-01T08:57:46.718Z,2.70
2023-05-01T09:00:23.711Z,2.22
2023-05-01T09:02:52.067Z,4.18
2023-05-01T09:05:20.717Z,2.53
2023-05-01T09:07:48.595Z,3.60
2023-05-01T09:10:24.654Z,2.90
2023-05-01T09:13:03.991Z,3.17
2023-05-01T09:15:32.642Z,2.65
2023-05-01T09:18:03.741Z,3.35
2023-05-01T09:20:40.794Z,2.47
2023-05-01T09:23:08.036Z,3.00
2023-05-01T09:25:35.376Z,2.17
2023-05-01T09:28:07.305Z,2.08
2023-05-01T09:30:36.854Z,2.67
2023-05-01T09:33:14.260Z,3.17
2023-05-01T09:35:55.519Z,2.78
2023-05-01T09:38:25.082Z,4.25
2023-05-01T09:40:54.510Z,2.50
2023-05-01T09:43:35.547Z,2.78
2023-05-01T09:46:12.079Z,2.35
2023-05-01T09:48:39.505Z,3.00
2023-05-01T09:51:22.962Z,2.13
2023-05-01T09:53:54.945Z,2.58
2023-05-01T09:56:22.723Z,1.88
2023-05-01T09:58:51.572Z,2.50
2023-05-01T10:01:19.545Z,2.75
2023-05-01T10:03:54.613Z,1.70
2023-05-01T10:06:30.723Z,2.03
2023-05-01T10:08:58.298Z,3.38
2023-05-01T10:11:27.148Z,1.75
2023-05-01T10:14:08.993Z,3.00
2023-05-01T10:17:07.273Z,2.60
2023-05-01T10:19:35.840Z,1.88
2023-05-01T10:22:03.539Z,3.88
2023-05-01T10:24:35.872Z,6.90
2023-05-01T10:27:42.201Z,2.97
2023-05-01T10:30:43.628Z,4.97
2023-05-01T10:33:14.809Z,2.47
2023-05-01T10:35:50.298Z,3.60
2023-05-01T10:38:26.149Z,1.92
2023-05-01T10:40:53.384Z,3.10
2023-05-01T10:43:43.782Z,1.65
2023-05-01T10:46:19.379Z,2.67
2023-05-01T10:49:49.632Z,2.90
2023-05-01T10:51:58.029Z,2.70
2023-05-01T10:54:26.787Z,3.58
2023-05-01T10:56:55.635Z,3.33
2023-05-01T10:59:22.854Z,3.25
2023-05-01T11:01:53.555Z,2.88
2023-05-01T11:04:30.118Z,2.20
2023-05-01T11:07:04.697Z,2.28
2023-05-01T11:09:55.323Z,6.32
2023-05-01T11:12:47.648Z,3.40
2023-05-01T11:15:30.596Z,1.80
2023-05-01T11:18:04.426Z,1.83
2023-05-01T11:20:47.495Z,1.58
2023-05-01T11:23:21.259Z,3.10
2023-05-01T11:25:50.766Z,2.17
2023-05-01T11:28:21.126Z,1.05
2023-05-01T11:30:53.109Z,2.13
2023-05-01T11:36:02.874Z,1.58
2023-05-01T11:38:32.866Z,1.48
2023-05-01T11:41:01.612Z,0.70
2023-05-01T11:43:34.086Z,0.40
2023-05-01T11:46:29.268Z,1.98
2023-05-01T11:49:03.298Z,0.98
2023-05-01T11:51:30.654Z,0.63
2023-05-01T11:54:08.377Z,1.65
2023-05-01T11:56:37.072Z,0.68
2023-05-01T11:59:17.194Z,2.33
2023-05-01T12:01:47.604Z,0.88
2023-05-01T12:08:45.495Z,1.38
2023-05-01T12:14:54.037Z,1.10
2023-05-01T12:17:54.815Z,1.95
2023-05-01T12:22:19.458Z,1.38
2023-05-01T12:29:00.543Z,1.52
2023-05-01T12:31:31.752Z,0.80
2023-05-01T12:34:06.214Z,1.10
2023-05-01T12:36:35.823Z,1.77
2023-05-01T12:39:05.766Z,1.77
2023-05-01T12:41:38.319Z,1.15
2023-05-01T12:44:22.923Z,1.13
2023-05-01T12:47:01.859Z,1.98
2023-05-01T12:49:32.662Z,0.82
2023-05-01T12:52:04.716Z,1.02
2023-05-01T12:57:10.879Z,1.25
2023-05-01T12:59:42.371Z,2.83
2023-05-01T13:02:12.864Z,1.65
2023-05-01T13:04:50.311Z,1.48
2023-05-01T13:07:19.502Z,2.30
2023-05-01T13:09:54.137Z,1.42
2023-05-01T13:12:27.935Z,1.05
2023-05-01T13:14:58.152Z,1.58
2023-05-01T13:17:30.279Z,1.20
2023-05-01T13:20:04.114Z,1.20
2023-05-01T13:22:38.109Z,2.22
2023-05-01T13:25:17.494Z,1.35
2023-05-01T13:27:52.499Z,1.00
2023-05-01T13:30:22.347Z,1.48
2023-05-01T13:32:49.873Z,1.10
2023-05-01T13:35:25.148Z,1.10
2023-05-01T13:37:53.379Z,0.70
2023-05-01T13:40:22.264Z,0.90
2023-05-01T13:42:53.379Z,1.33
2023-05-01T13:45:26.538Z,0.95
2023-05-01T13:47:55.429Z,0.70
2023-05-01T13:50:22.666Z,1.60
2023-05-01T13:52:49.834Z,1.67
2023-05-01T13:55:17.993Z,1.02
2023-05-01T13:57:48.309Z,1.65
2023-05-01T14:00:20.195Z,0.80
2023-05-01T14:05:16.803Z,2.75
2023-05-01T14:08:02.387Z,2.33
2023-05-01T14:10:29.830Z,3.58
2023-05-01T14:12:58.828Z,1.90
2023-05-01T14:15:26.412Z,3.60
2023-05-01T14:17:53.502Z,4.35
2023-05-01T14:20:20.526Z,2.35
2023-05-01T14:22:51.841Z,3.13
2023-05-01T14:25:23.427Z,4.07
2023-05-01T14:27:51.425Z,4.13
2023-05-01T14:30:58.844Z,3.78
2023-05-01T14:34:11.107Z,2.40
2023-05-01T14:36:32.749Z,3.08
2023-05-01T14:39:01.380Z,3.10
2023-05-01T14:41:32.152Z,2.97
2023-05-01T14:44:05.985Z,3.28
2023-05-01T14:46:53.028Z,3.65
2023-05-01T14:49:29.888Z,4.15
2023-05-01T14:52:00.143Z,3.70
2023-05-01T14:54:35.693Z,5.05
2023-05-01T15:00:28.806Z,2.55
2023-05-01T15:03:29.192Z,3.72
2023-05-01T15:07:07.366Z,4.57
2023-05-01T15:09:51.498Z,3.50
2023-05-01T15:12:22.118Z,3.25
2023-05-01T15:14:55.717Z,4.05
2023-05-01T15:18:31.532Z,3.00
2023-05-01T15:21:12.283Z,4.28
2023-05-01T15:23:40.457Z,3.60
2023-05-01T15:27:38.589Z,3.22
2023-05-01T15:33:44.063Z,2.33
2023-05-01T15:43:48.775Z,2.78
2023-05-01T15:46:20.275Z,2.30
2023-05-01T15:48:53.865Z,1.63
2023-05-01T15:51:25.813Z,2.47
2023-05-01T15:53:55.154Z,2.92
2023-05-01T15:56:22.615Z,1.75
2023-05-01T15:58:57.069Z,2.85
2023-05-01T16:01:34.547Z,1.92
2023-05-01T16:04:29.185Z,3.15
2023-05-01T16:10:53.252Z,1.88
2023-05-01T16:13:27.728Z,2.88
2023-05-01T16:16:02.194Z,2.65
2023-05-01T16:18:59.129Z,3.60
2023-05-01T16:21:46.889Z,2.28
2023-05-01T16:24:14.930Z,2.78
2023-05-01T16:27:30.001Z,2.35
2023-05-01T16:29:58.297Z,2.17
2023-05-01T16:32:26.109Z,1.33
2023-05-01T17:04:42.403Z,3.47
2023-05-01T17:07:32.676Z,3.28
2023-05-01T17:10:11.785Z,2.60
2023-05-01T17:12:57.387Z,2.22
2023-05-01T17:15:24.807Z,2.15
2023-05-01T17:17:52.024Z,2.53
2023-05-01T17:20:26.685Z,1.85
2023-05-01T17:23:23.155Z,2.55
2023-05-01T17:26:15.184Z,3.40
2023-05-01T17:29:01.123Z,2.85
2023-05-01T17:32:04.882Z,2.78
2023-05-01T17:37:33.965Z,1.95
2023-05-01T17:40:42.871Z,1.13
2023-05-01T17:43:42.489Z,1.95
2023-05-01T17:47:29.866Z,2.65
2023-05-01T17:51:04.075Z,2.60
2023-05-01T18:02:39.628Z,2.47
2023-05-01T18:10:49.787Z,3.15
2023-05-01T18:13:41.356Z,3.70
2023-05-01T18:20:33.815Z,3.67
2023-05-01T18:23:05.043Z,4.47
2023-05-01T18:37:48.000Z,3.50
2023-05-01T18:45:14.342Z,3.83
2023-05-01T18:47:41.876Z,4.60
2023-05-01T18:50:31.687Z,4.72
2023-05-01T18:53:04.177Z,4.45
2023-05-01T18:55:31.480Z,3.35
2023-05-01T18:58:30.280Z,5.07
2023-05-01T19:00:57.747Z,4.18
2023-05-01T19:03:24.872Z,5.85
2023-05-01T19:06:20.648Z,5.65
2023-05-01T19:08:47.832Z,5.28
2023-05-01T19:11:27.709Z,5.35
2023-05-01T19:23:00.004Z,5.18
2023-05-01T19:25:29.989Z,5.20
2023-05-01T19:30:30.282Z,7.05
2023-05-01T19:33:00.421Z,5.45
2023-05-01T19:35:28.992Z,5.10
2023-05-01T19:37:56.977Z,4.75
2023-05-01T19:40:27.606Z,6.22
2023-05-01T19:42:54.984Z,5.82
2023-05-01T19:45:22.233Z,6.40
2023-05-01T19:48:09.933Z,5.40
2023-05-01T19:55:32.734Z,6.65
2023-05-01T20:02:36.516Z,4.80
2023-05-01T20:15:25.763Z,3.78
2023-05-01T20:22:41.607Z,4.93
2023-05-01T20:30:14.409Z,5.57
2023-05-01T20:33:43.637Z,6.22
2023-05-01T20:37:24.564Z,6.57
2023-05-01T21:06:28.052Z,12.23
2023-05-01T21:08:56.041Z,12.77
2023-05-01T21:20:34.227Z,14.48
2023-05-01T21:26:03.922Z,14.95
2023-05-01T21:29:20.931Z,13.00
2023-05-01T21:50:23.089Z,11.15
2023-05-01T22:04:53.709Z,17.73
2023-05-01T22:07:21.650Z,12.70
2023-05-01T22:19:32.692Z,9.65
2023-05-01T22:22:38.097Z,13.05
2023-05-01T22:25:31.120Z,11.65
2023-05-01T22:28:05.794Z,11.50
2023-05-01T22:30:51.055Z,10.45
2023-05-01T22:33:21.512Z,13.25
2023-05-01T22:35:59.401Z,14.80
2023-05-01T22:42:55.776Z,13.50
2023-05-01T22:45:05.257Z,10.77
2023-05-01T22:52:00.031Z,9.10
2023-05-01T23:00:22.879Z,8.93
2023-05-01T23:07:18.365Z,10.00
2023-05-01T23:10:10.989Z,10.60
2023-05-01T23:17:38.782Z,10.98
2023-05-01T23:20:26.259Z,8.32
2023-05-01T23:22:54.308Z,10.20
2023-05-01T23:25:28.697Z,11.88
2023-05-01T23:27:57.116Z,9.88
2023-05-01T23:30:24.222Z,10.23
2023-05-01T23:32:51.898Z,11.77
2023-05-01T23:35:25.183Z,13.15
2023-05-01T23:37:53.888Z,10.68
2023-05-01T23:40:21.257Z,14.00
2023-05-01T23:42:49.014Z,10.95
2023-05-01T23:45:17.081Z,10.93
2023-05-01T23:47:44.343Z,10.77
2023-05-01T23:50:11.684Z,10.48
2023-05-01T23:52:38.847Z,12.57
2023-05-01T23:55:06.110Z,11.02
2023-05-01T23:57:33.207Z,11.90
